createdAt,value
2022-12-02T00:02:57.085Z,35.75
2022-12-02T00:08:01.534Z,36.75
2022-12-02T00:13:22.922Z,36.75
2022-12-02T00:18:25.979Z,25.75
2022-12-02T00:23:27.921Z,33.50
2022-12-02T00:28:29.835Z,32.50
2022-12-02T00:33:31.901Z,33.00
2022-12-02T00:38:33.799Z,32.50
2022-12-02T00:43:54.378Z,38.50
2022-12-02T00:48:56.287Z,31.25
2022-12-02T00:53:58.477Z,24.75
2022-12-02T00:59:01.437Z,40.75
2022-12-02T01:04:03.694Z,35.50
2022-12-02T01:09:05.651Z,38.25
2022-12-02T01:14:07.621Z,34.75
2022-12-02T01:19:09.562Z,31.25
2022-12-02T01:24:12.552Z,31.50
2022-12-02T01:29:14.464Z,24.25
2022-12-02T01:34:16.346Z,40.75
2022-12-02T01:39:18.275Z,38.75
2022-12-02T01:44:20.273Z,44.25
2022-12-02T01:49:22.931Z,25.50
2022-12-02T01:54:24.867Z,32.50
2022-12-02T01:59:27.200Z,30.25
2022-12-02T02:04:29.149Z,30.00
2022-12-02T02:09:31.104Z,27.50
2022-12-02T02:14:36.094Z,25.00
2022-12-02T02:19:38.371Z,39.25
2022-12-02T02:24:40.618Z,32.25
2022-12-02T02:29:42.995Z,24.00
2022-12-02T02:34:45.767Z,10.00
2022-12-02T02:39:47.927Z,20.00
2022-12-02T02:44:51.599Z,11.50
2022-12-02T02:49:53.940Z,12.50
2022-12-02T02:54:56.047Z,19.75
2022-12-02T02:59:59.677Z,12.75
2022-12-02T03:05:02.374Z,21.25
2022-12-02T03:10:06.181Z,27.25
2022-12-02T03:15:09.460Z,31.75
2022-12-02T03:20:11.859Z,28.25
2022-12-02T03:25:13.765Z,32.50
2022-12-02T03:30:18.375Z,28.00
2022-12-02T03:35:20.755Z,35.00
2022-12-02T03:40:23.535Z,34.75
2022-12-02T03:45:26.130Z,27.75
2022-12-02T03:50:28.472Z,26.75
2022-12-02T03:55:30.462Z,19.25
2022-12-02T04:00:32.617Z,23.00
2022-12-02T04:05:34.567Z,11.25
2022-12-02T04:10:36.701Z,21.75
2022-12-02T04:15:38.659Z,14.00
2022-12-02T04:20:40.681Z,14.25
2022-12-02T04:25:42.707Z,17.00
2022-12-02T04:30:44.963Z,21.75
2022-12-02T04:35:46.991Z,19.75
2022-12-02T04:40:48.952Z,13.75
2022-12-02T04:45:50.949Z,15.75
2022-12-02T04:50:52.851Z,19.75
2022-12-02T04:55:54.771Z,16.25
2022-12-02T05:00:56.940Z,19.00
2022-12-02T05:05:58.972Z,11.75
2022-12-02T05:11:01.081Z,9.75
2022-12-02T05:16:03.228Z,10.25
2022-12-02T05:21:05.544Z,10.75
2022-12-02T05:26:07.556Z,10.00
2022-12-02T05:31:18.716Z,15.50
2022-12-02T05:36:22.050Z,9.50
2022-12-02T05:41:24.130Z,8.25
2022-12-02T05:46:27.481Z,13.50
2022-12-02T05:51:32.371Z,11.25
2022-12-02T05:56:35.552Z,15.50
2022-12-02T06:01:40.002Z,12.25
2022-12-02T06:06:42.258Z,14.75
2022-12-02T06:11:45.267Z,18.50
2022-12-02T06:16:51.584Z,23.75
2022-12-02T06:21:54.942Z,14.25
2022-12-02T06:26:59.161Z,17.50
2022-12-02T06:32:01.191Z,18.75
2022-12-02T06:37:14.693Z,18.75
2022-12-02T06:42:26.824Z,12.50
2022-12-02T06:47:37.754Z,15.00
2022-12-02T06:52:45.085Z,16.50
2022-12-02T06:57:47.020Z,20.00
2022-12-02T07:02:49.696Z,14.75
2022-12-02T07:07:52.033Z,16.00
2022-12-02T07:12:56.963Z,6.00
2022-12-02T07:18:18.603Z,18.00
2022-12-02T07:23:24.128Z,19.00
2022-12-02T07:28:35.086Z,14.25
2022-12-02T07:33:37.092Z,17.75
2022-12-02T07:44:00.924Z,13.00
2022-12-02T07:49:02.866Z,19.75
2022-12-02T07:54:04.862Z,17.50
2022-12-02T07:59:14.428Z,11.00
2022-12-02T08:04:16.703Z,15.25
2022-12-02T08:09:18.643Z,13.75
2022-12-02T08:14:20.575Z,11.50
2022-12-02T08:19:22.581Z,8.25
2022-12-02T08:24:24.472Z,11.75
2022-12-02T08:29:26.470Z,9.75
2022-12-02T08:34:28.518Z,13.00
2022-12-02T08:39:30.499Z,8.75
2022-12-02T08:44:32.891Z,8.50
2022-12-02T08:49:34.979Z,6.75
2022-12-02T08:54:37.203Z,8.00
2022-12-02T08:59:39.120Z,7.25
2022-12-02T09:04:41.409Z,10.00
2022-12-02T09:09:43.686Z,8.75
2022-12-02T09:14:45.600Z,11.00
2022-12-02T09:19:47.500Z,10.75
2022-12-02T09:24:49.685Z,7.25
2022-12-02T09:29:51.891Z,3.75
2022-12-02T09:34:54.133Z,9.25
2022-12-02T09:39:56.405Z,12.75
2022-12-02T09:44:59.105Z,13.25
2022-12-02T09:50:01.115Z,14.25
2022-12-02T09:55:04.007Z,12.25
2022-12-02T10:00:12.592Z,12.25
2022-12-02T10:05:18.263Z,10.00
2022-12-02T10:10:23.598Z,12.25
2022-12-02T10:15:28.513Z,8.25
2022-12-02T10:20:30.395Z,7.50
2022-12-02T10:25:32.998Z,9.50
2022-12-02T10:30:34.919Z,13.00
2022-12-02T10:36:04.456Z,14.00
2022-12-02T10:41:15.495Z,14.50
2022-12-02T10:46:19.176Z,20.00
2022-12-02T10:51:21.856Z,20.00
2022-12-02T10:56:24.096Z,17.75
2022-12-02T11:01:26.062Z,15.00
2022-12-02T11:06:28.149Z,22.75
2022-12-02T11:11:30.008Z,21.25
2022-12-02T11:16:31.871Z,19.50
2022-12-02T11:21:59.030Z,14.50
2022-12-02T11:27:05.164Z,7.00
2022-12-02T11:32:18.908Z,15.75
2022-12-02T11:37:27.145Z,16.50
2022-12-02T11:42:31.357Z,19.75
2022-12-02T11:47:34.230Z,19.00
2022-12-02T11:52:40.223Z,17.00
2022-12-02T11:57:52.465Z,20.75
2022-12-02T12:03:17.964Z,24.25
2022-12-02T12:08:26.568Z,22.75
2022-12-02T12:13:31.474Z,24.00
2022-12-02T12:18:39.262Z,16.75
2022-12-02T12:23:44.439Z,15.00
2022-12-02T12:28:46.330Z,15.50
2022-12-02T12:33:48.204Z,19.75
2022-12-02T12:38:51.517Z,18.25
2022-12-02T12:43:53.419Z,20.00
2022-12-02T12:48:55.574Z,16.50
2022-12-02T12:53:57.595Z,14.75
2022-12-02T12:59:00.726Z,17.25
2022-12-02T13:04:02.612Z,18.00
2022-12-02T13:09:05.363Z,18.50
2022-12-02T13:14:08.107Z,22.25
2022-12-02T13:19:10.002Z,23.75
2022-12-02T13:24:14.082Z,26.00
2022-12-02T13:29:16.147Z,35.50
2022-12-02T13:34:18.091Z,58.50
2022-12-02T13:39:20.021Z,22.50
2022-12-02T13:44:21.957Z,32.25
2022-12-02T13:49:24.975Z,24.25
2022-12-02T13:54:26.966Z,21.25
2022-12-02T13:59:31.728Z,43.50
2022-12-02T14:04:38.175Z,24.25
2022-12-02T14:09:40.189Z,31.25
2022-12-02T14:14:42.101Z,24.00
2022-12-02T14:19:43.953Z,49.75
2022-12-02T14:24:49.123Z,37.50
2022-12-02T14:29:51.361Z,32.75
2022-12-02T14:34:53.567Z,26.50
2022-12-02T14:39:55.705Z,30.25
2022-12-02T14:44:57.632Z,23.75
2022-12-02T14:49:59.638Z,26.25
2022-12-02T14:55:01.865Z,31.25
2022-12-02T15:00:05.250Z,38.75
2022-12-02T15:05:13.962Z,28.00
2022-12-02T15:10:17.120Z,31.75
2022-12-02T15:20:41.012Z,32.25
2022-12-02T15:25:42.923Z,31.50
2022-12-02T15:30:44.834Z,31.00
2022-12-02T15:35:46.802Z,30.25
2022-12-02T15:40:48.740Z,27.25
2022-12-02T15:45:50.700Z,54.00
2022-12-02T15:50:55.387Z,26.00
2022-12-02T15:55:57.711Z,36.75
2022-12-02T16:00:59.840Z,30.50
2022-12-02T16:06:01.740Z,28.75
2022-12-02T16:11:03.888Z,37.25
2022-12-02T16:16:06.044Z,36.75
2022-12-02T16:21:08.064Z,32.75
2022-12-02T16:26:10.015Z,42.25
2022-12-02T16:31:12.171Z,33.50
2022-12-02T16:36:14.189Z,34.25
2022-12-02T16:41:16.127Z,40.00
2022-12-02T16:46:19.256Z,55.25
2022-12-02T16:51:21.218Z,44.75
2022-12-02T16:56:23.125Z,34.25
2022-12-02T17:01:26.279Z,37.00
2022-12-02T17:06:28.316Z,37.00
2022-12-02T17:11:30.360Z,42.25
2022-12-02T17:16:32.517Z,51.25
2022-12-02T17:21:34.525Z,29.25
2022-12-02T17:26:36.415Z,33.50
2022-12-02T17:31:38.725Z,50.50
2022-12-02T17:36:42.200Z,32.00
2022-12-02T17:41:45.253Z,33.00
2022-12-02T17:46:48.631Z,30.25
2022-12-02T17:52:18.256Z,37.00
2022-12-02T17:57:12.659Z,64.00
2022-12-02T18:02:14.865Z,58.50
2022-12-02T18:07:17.075Z,33.50
2022-12-02T18:12:19.152Z,34.25
2022-12-02T18:17:21.095Z,39.75
2022-12-02T18:22:23.136Z,39.25
2022-12-02T18:27:27.422Z,33.00
2022-12-02T18:32:30.290Z,40.50
2022-12-02T18:37:32.330Z,49.00
2022-12-02T18:42:34.704Z,62.50
2022-12-02T18:47:36.735Z,39.50
2022-12-02T18:52:38.744Z,47.50
2022-12-02T18:57:40.698Z,58.50
2022-12-02T19:02:43.348Z,43.75
2022-12-02T19:07:46.506Z,41.00
2022-12-02T19:12:48.622Z,29.00
2022-12-02T19:17:50.619Z,37.75
2022-12-02T19:22:52.635Z,39.25
2022-12-02T19:27:58.258Z,26.25
2022-12-02T19:33:01.146Z,40.25
2022-12-02T19:38:08.880Z,34.25
2022-12-02T19:43:16.349Z,34.75
2022-12-02T19:48:18.383Z,31.25
2022-12-02T19:53:20.370Z,32.25
2022-12-02T19:58:22.363Z,30.25
2022-12-02T20:03:24.450Z,30.00
2022-12-02T20:08:28.007Z,22.75
2022-12-02T20:13:30.030Z,25.75
2022-12-02T20:18:32.093Z,19.75
2022-12-02T20:23:34.074Z,28.00
2022-12-02T20:28:36.107Z,23.50
2022-12-02T20:33:38.104Z,23.75
2022-12-02T20:38:40.123Z,19.25
2022-12-02T20:43:42.057Z,18.75
2022-12-02T20:48:44.274Z,20.50
2022-12-02T20:53:46.237Z,29.00
2022-12-02T20:58:49.487Z,29.00
2022-12-02T21:03:51.534Z,21.50
2022-12-02T21:08:55.917Z,28.50
2022-12-02T21:13:57.976Z,30.50
2022-12-02T21:18:59.984Z,38.75
2022-12-02T21:24:04.069Z,31.50
2022-12-02T21:29:08.183Z,24.50
2022-12-02T21:34:10.125Z,22.75
2022-12-02T21:39:12.048Z,25.25
2022-12-02T21:44:13.979Z,24.75
2022-12-02T21:49:15.876Z,19.00
2022-12-02T21:54:17.880Z,25.25
2022-12-02T21:59:19.789Z,28.00
2022-12-02T22:04:22.584Z,19.25
2022-12-02T22:09:24.523Z,30.25
2022-12-02T22:14:26.587Z,24.50
2022-12-02T22:19:28.546Z,24.00
2022-12-02T22:24:30.493Z,25.50
2022-12-02T22:29:32.409Z,30.75
2022-12-02T22:34:34.346Z,25.50
2022-12-02T22:39:36.258Z,25.75
2022-12-02T22:44:38.192Z,21.00
2022-12-02T22:49:40.119Z,17.75
2022-12-02T22:54:42.036Z,17.00
2022-12-02T22:59:43.992Z,19.75
2022-12-02T23:04:45.926Z,17.25
2022-12-02T23:09:47.848Z,18.50
2022-12-02T23:14:49.959Z,31.75
2022-12-02T23:19:52.205Z,23.25
2022-12-02T23:24:54.381Z,17.25
2022-12-02T23:29:56.448Z,23.25
2022-12-02T23:34:58.377Z,22.50
2022-12-02T23:40:00.306Z,16.50
2022-12-02T23:45:02.279Z,14.75
2022-12-02T23:50:05.978Z,9.50
2022-12-02T23:55:08.574Z,12.75
